Time;durP1;ratioP1;P1;durP2;ratioP2;P2;SDS_P1;SDS_P2;PMS_P1;PMS_P2;Temp;Humidity;BMP_temperature;BMP_pressure;BME280_temperature;BME280_humidity;BME280_pressure;Samples;Min_cycle;Max_cycle;Signal;HPM_P1;HPM_P2
2021/03/28 00:00:55;;;;;;;18.38;2.47;;;;;;;11.37;74.72;101096.09;5007684;28;20076;-92
2021/03/28 00:03:53;;;;;;;24.33;3.15;;;;;;;11.37;74.33;101096.09;4976346;28;20022;-92
2021/03/28 00:06:27;;;;;;;15.05;2.25;;;;;;;11.00;76.48;101098.31;4977433;28;20089;-92
2021/03/28 00:09:11;;;;;;;21.73;3.38;;;;;;;11.38;74.39;101087.28;4976551;28;20118;-91
2021/03/28 00:12:09;;;;;;;12.73;2.38;;;;;;;11.57;74.00;101094.03;4976705;28;20146;-92
2021/03/28 00:14:49;;;;;;;15.18;2.40;;;;;;;11.19;75.55;101091.94;4978797;28;20401;-93
2021/03/28 00:17:50;;;;;;;16.92;2.75;;;;;;;11.46;74.19;101094.72;4987396;28;20489;-92
2021/03/28 00:20:16;;;;;;;15.45;2.22;;;;;;;11.43;73.73;101095.75;4994378;28;20038;-92
2021/03/28 00:22:47;;;;;;;17.95;2.22;;;;;;;11.68;72.98;101088.97;4994550;28;20030;-92
2021/03/28 00:25:32;;;;;;;27.50;2.72;;;;;;;11.74;72.05;101085.97;4994842;28;20493;-92
2021/03/28 00:28:00;;;;;;;18.67;2.40;;;;;;;11.72;72.64;101095.72;4995388;28;20034;-92
2021/03/28 00:30:30;;;;;;;19.55;2.60;;;;;;;11.87;71.70;101097.41;5011006;28;20026;-92
2021/03/28 00:33:20;;;;;;;13.93;2.35;;;;;;;11.83;72.12;101090.66;4994589;28;20112;-93
2021/03/28 00:35:46;;;;;;;22.75;2.70;;;;;;;11.82;71.43;101096.00;4995193;28;20026;-92
2021/03/28 00:38:17;;;;;;;12.65;2.22;;;;;;;11.84;71.63;101076.53;4994650;28;20546;-92
2021/03/28 00:40:44;;;;;;;15.75;4.38;;;;;;;11.56;72.02;101069.53;4995774;28;20489;-92
2021/03/28 00:43:14;;;;;;;18.65;2.50;;;;;;;11.55;72.11;101077.50;4994217;28;20035;-92
2021/03/28 00:45:39;;;;;;;21.77;3.80;;;;;;;11.48;72.64;101070.00;4994317;28;20081;-92
2021/03/28 00:48:12;;;;;;;24.50;3.25;;;;;;;11.43;72.71;101052.81;4994387;28;20026;-93
2021/03/28 00:50:45;;;;;;;14.18;2.30;;;;;;;11.64;71.89;101067.28;4995657;28;20026;-92
2021/03/28 00:53:14;;;;;;;9.05;1.67;;;;;;;11.59;72.07;101068.50;4994450;28;20481;-92
2021/03/28 00:55:54;;;;;;;14.10;2.85;;;;;;;11.50;72.77;101064.66;4994262;28;20046;-92
2021/03/28 00:58:26;;;;;;;21.25;3.10;;;;;;;11.63;71.70;101064.72;4995371;28;20481;-92
2021/03/28 01:01:28;;;;;;;21.42;2.45;;;;;;;11.89;70.63;101058.72;4993460;28;20033;-93
2021/03/28 01:04:34;;;;;;;16.67;2.17;;;;;;;11.92;70.81;101067.38;4994074;28;20206;-93
2021/03/28 01:07:11;;;;;;;16.65;2.55;;;;;;;11.91;70.55;101058.63;4994124;28;20559;-92
2021/03/28 01:10:15;;;;;;;22.00;4.55;;;;;;;12.09;69.69;101061.88;4993971;28;20030;-92
2021/03/28 01:13:08;;;;;;;16.80;2.75;;;;;;;11.68;71.66;101055.63;4993927;28;20026;-92
2021/03/28 01:15:52;;;;;;;10.75;2.03;;;;;;;11.96;70.28;101060.97;4980044;28;20034;-92
2021/03/28 01:18:40;;;;;;;15.48;2.58;;;;;;;11.72;70.56;101037.84;4974625;28;20117;-92
2021/03/28 01:21:36;;;;;;;15.13;2.40;;;;;;;11.58;72.00;101038.72;4974382;28;20022;-93
2021/03/28 01:24:24;;;;;;;20.63;2.60;;;;;;;11.67;72.32;101045.19;4974417;28;20031;-93
2021/03/28 01:26:59;;;;;;;18.55;2.78;;;;;;;11.75;71.69;101042.94;4975599;28;20026;-93
2021/03/28 01:29:30;;;;;;;15.50;2.78;;;;;;;11.54;72.84;101028.50;4975559;28;20049;-92
2021/03/28 01:32:08;;;;;;;21.60;3.20;;;;;;;11.65;72.94;101036.53;4974911;28;20093;-93
2021/03/28 01:34:50;;;;;;;11.57;2.38;;;;;;;11.64;73.11;101022.56;4974285;28;20054;-93
2021/03/28 01:37:26;;;;;;;14.38;2.33;;;;;;;11.48;73.37;101035.81;4974408;28;20121;-93
2021/03/28 01:40:09;;;;;;;13.45;2.85;;;;;;;11.47;73.23;101031.50;4974748;28;20059;-94
2021/03/28 01:42:56;;;;;;;15.73;2.50;;;;;;;11.52;73.09;101018.91;4974499;28;20031;-93
2021/03/28 01:45:34;;;;;;;21.67;2.78;;;;;;;11.03;74.80;101024.53;4989849;28;20432;-92
2021/03/28 01:48:24;;;;;;;17.27;2.10;;;;;;;11.48;72.25;101012.16;4994536;28;20026;-93
2021/03/28 01:51:08;;;;;;;19.48;2.40;;;;;;;11.43;72.57;101016.88;4995145;28;20030;-93
2021/03/28 01:53:47;;;;;;;17.90;2.13;;;;;;;11.38;72.87;101018.09;4995024;28;20026;-92
2021/03/28 01:56:37;;;;;;;17.38;3.05;;;;;;;11.49;72.72;101012.97;4995072;28;20084;-93
2021/03/28 01:59:02;;;;;;;12.40;2.20;;;;;;;11.30;73.35;101010.66;5009718;28;20121;-92
2021/03/28 02:01:47;;;;;;;18.73;3.90;;;;;;;11.28;72.76;101009.91;5003788;28;20018;-92
2021/03/28 02:04:23;;;;;;;22.13;2.75;;;;;;;11.23;73.49;101017.22;5017438;28;20065;-92
2021/03/28 02:06:57;;;;;;;23.98;3.03;;;;;;;11.45;72.80;101009.72;5014257;28;20026;-92
2021/03/28 02:09:31;;;;;;;21.67;2.30;;;;;;;11.34;73.78;101006.91;5015939;28;20015;-91
2021/03/28 02:12:06;;;;;;;20.40;2.47;;;;;;;11.34;73.77;101000.81;5001279;28;20048;-91
2021/03/28 02:14:41;;;;;;;18.42;2.95;;;;;;;11.44;73.73;100991.41;4994163;28;20023;-92
2021/03/28 02:17:49;;;;;;;15.85;2.65;;;;;;;11.62;72.97;100984.16;4985901;28;20417;-92
2021/03/28 02:20:31;;;;;;;15.68;3.40;;;;;;;11.55;74.13;100990.72;4997367;28;20146;-92
2021/03/28 02:23:12;;;;;;;17.98;2.92;;;;;;;11.48;74.24;100972.69;4992961;28;20085;-92
2021/03/28 02:25:47;;;;;;;24.67;3.33;;;;;;;11.53;73.61;100969.78;5009455;28;20026;-93
2021/03/28 02:28:29;;;;;;;18.80;3.35;;;;;;;11.52;73.72;100971.56;5009586;28;20420;-94
2021/03/28 02:31:27;;;;;;;16.88;2.75;;;;;;;11.28;74.36;100959.97;4991840;28;20023;-93
2021/03/28 02:33:58;;;;;;;21.75;2.65;;;;;;;11.27;74.34;100972.25;4972739;28;20489;-93
2021/03/28 02:36:31;;;;;;;15.35;2.55;;;;;;;11.60;72.76;100973.72;4973591;28;20038;-93
2021/03/28 02:39:19;;;;;;;20.10;2.75;;;;;;;11.65;72.07;100965.53;4973391;28;20030;-93
2021/03/28 02:41:54;;;;;;;30.02;3.17;;;;;;;11.33;73.74;100973.66;4973105;28;20023;-93
2021/03/28 02:44:56;;;;;;;15.95;3.35;;;;;;;11.69;71.91;100972.31;4973151;28;20023;-93
2021/03/28 02:47:53;;;;;;;23.17;3.63;;;;;;;11.51;72.45;100987.44;4988451;28;20029;-94
2021/03/28 02:50:30;;;;;;;20.70;3.53;;;;;;;11.48;72.09;100972.69;5004854;28;20060;-93
2021/03/28 02:53:24;;;;;;;19.65;2.80;;;;;;;11.44;72.61;100965.94;5010573;28;20030;-93
2021/03/28 02:56:08;;;;;;;24.98;2.78;;;;;;;11.18;73.20;100964.09;4998343;28;20038;-92
2021/03/28 02:58:54;;;;;;;16.15;3.55;;;;;;;11.39;72.67;100960.13;5009236;28;20265;-94
2021/03/28 03:01:25;;;;;;;20.95;3.08;;;;;;;11.71;71.49;100962.53;4992872;28;20117;-94
2021/03/28 03:04:20;;;;;;;24.00;4.97;;;;;;;11.52;71.98;100947.91;5009307;28;20053;-94
2021/03/28 03:06:48;;;;;;;19.65;3.33;;;;;;;11.79;71.04;100952.34;4992729;28;20035;-93
2021/03/28 03:09:37;;;;;;;29.73;3.45;;;;;;;11.75;71.17;100957.88;5000602;28;20105;-94
2021/03/28 03:12:40;;;;;;;17.58;2.58;;;;;;;11.82;70.81;100954.78;5005980;28;20065;-94
2021/03/28 03:15:08;;;;;;;27.73;5.38;;;;;;;11.38;72.14;100945.28;5007108;28;20316;-94
2021/03/28 03:18:01;;;;;;;14.90;2.60;;;;;;;11.68;72.03;100946.94;5008563;28;20030;-93
2021/03/28 03:20:33;;;;;;;17.95;3.45;;;;;;;11.31;73.83;100954.50;5018538;28;20027;-93
2021/03/28 03:23:49;;;;;;;17.48;3.13;;;;;;;10.94;76.85;100934.91;5020987;28;20015;-93
2021/03/28 03:26:53;;;;;;;10.48;2.85;;;;;;;11.50;74.55;100948.94;5003650;28;20116;-93
2021/03/28 03:29:37;;;;;;;25.05;2.88;;;;;;;11.60;74.60;100943.94;5014063;28;20022;-94
2021/03/28 03:32:23;;;;;;;20.75;2.95;;;;;;;11.28;77.69;100949.44;5009488;28;20038;-93
2021/03/28 03:35:13;;;;;;;16.17;2.35;;;;;;;11.50;78.31;100943.69;5013669;28;20019;-93
2021/03/28 03:38:17;;;;;;;17.30;3.08;;;;;;;11.35;79.10;100949.91;4991235;28;20117;-94
2021/03/28 03:41:21;;;;;;;23.92;3.05;;;;;;;11.23;80.60;100947.09;4982719;28;20027;-94
2021/03/28 03:44:05;;;;;;;20.52;3.25;;;;;;;11.19;81.21;100939.50;4985192;28;20035;-94
2021/03/28 03:46:48;;;;;;;14.88;2.92;;;;;;;11.14;81.96;100933.66;4984816;28;20046;-94
2021/03/28 03:49:56;;;;;;;19.15;4.95;;;;;;;11.11;83.11;100942.59;5001088;28;20035;-93
2021/03/28 03:52:47;;;;;;;22.58;4.20;;;;;;;11.19;82.85;100942.13;4989100;28;20015;-94
2021/03/28 03:55:34;;;;;;;23.87;3.53;;;;;;;11.04;82.21;100931.63;4997209;28;20050;-94
2021/03/28 03:58:33;;;;;;;17.95;2.80;;;;;;;11.25;82.20;100939.94;5013424;28;20011;-93
2021/03/28 04:01:07;;;;;;;16.63;3.75;;;;;;;11.04;80.93;100926.38;4986872;28;20022;-92
2021/03/28 04:03:57;;;;;;;31.05;3.53;;;;;;;11.24;80.43;100933.03;4989454;28;20031;-93
2021/03/28 04:06:31;;;;;;;24.70;4.22;;;;;;;11.38;79.38;100924.25;5009652;28;20034;-93
2021/03/28 04:09:20;;;;;;;23.83;3.40;;;;;;;11.18;79.41;100919.44;5017694;28;20027;-94
2021/03/28 04:12:00;;;;;;;22.10;3.53;;;;;;;11.04;80.41;100926.38;4997633;28;20061;-94
2021/03/28 04:15:03;;;;;;;22.63;2.97;;;;;;;11.13;79.46;100926.75;4996361;28;20109;-94
2021/03/28 04:18:06;;;;;;;15.75;2.42;;;;;;;11.14;78.49;100928.41;4996426;28;20058;-94
2021/03/28 04:20:34;;;;;;;17.05;3.30;;;;;;;11.18;78.60;100938.66;4996857;28;20030;-94
2021/03/28 04:23:24;;;;;;;16.00;2.78;;;;;;;11.34;77.52;100933.28;4995503;28;20054;-93
2021/03/28 04:26:05;;;;;;;22.77;3.38;;;;;;;11.45;77.10;100936.09;4996311;28;20037;-94
2021/03/28 04:28:55;;;;;;;18.80;3.22;;;;;;;11.46;77.23;100922.00;4996669;28;20538;-94
2021/03/28 04:31:58;;;;;;;17.95;3.28;;;;;;;11.64;75.53;100941.00;4996873;28;20038;-94
2021/03/28 04:34:29;;;;;;;17.98;3.20;;;;;;;11.48;76.30;100935.06;4995546;28;20105;-92
2021/03/28 04:37:17;;;;;;;18.98;4.50;;;;;;;11.14;77.36;100944.19;4995437;28;20771;-93
2021/03/28 04:40:01;;;;;;;25.08;3.38;;;;;;;11.70;75.17;100930.09;4994397;28;20081;-94
2021/03/28 04:42:54;;;;;;;19.67;3.00;;;;;;;11.61;75.43;100938.59;4991715;28;20027;-92
2021/03/28 04:45:25;;;;;;;16.42;2.42;;;;;;;11.54;75.92;100928.56;4975742;28;20027;-93
2021/03/28 04:48:15;;;;;;;19.92;2.95;;;;;;;11.64;75.79;100943.63;4975502;28;20034;-94
2021/03/28 04:51:08;;;;;;;22.92;3.63;;;;;;;11.47;75.69;100936.84;4975739;28;20481;-94
2021/03/28 04:53:58;;;;;;;18.50;2.45;;;;;;;11.71;75.38;100937.06;4982484;28;20507;-95
2021/03/28 04:56:48;;;;;;;13.82;2.47;;;;;;;11.68;75.26;100926.72;4975826;28;20062;-94
2021/03/28 04:59:43;;;;;;;16.50;2.33;;;;;;;11.61;76.34;100924.56;4976474;28;20055;-94
2021/03/28 05:02:24;;;;;;;24.27;2.95;;;;;;;11.77;76.72;100941.09;4976898;28;20022;-94
2021/03/28 05:05:21;;;;;;;16.02;2.60;;;;;;;11.76;76.81;100938.53;4976787;28;20042;-94
2021/03/28 05:08:24;;;;;;;21.20;5.68;;;;;;;11.63;77.11;100947.22;4991627;28;20050;-94
2021/03/28 05:11:24;;;;;;;24.63;3.60;;;;;;;11.27;79.86;100929.34;5012235;28;20086;-93
2021/03/28 05:14:19;;;;;;;19.30;3.20;;;;;;;11.49;80.39;100948.09;4989695;28;20035;-94
2021/03/28 05:17:32;;;;;;;18.55;2.95;;;;;;;11.35;82.02;100952.53;4975932;28;20052;-94
2021/03/28 05:20:36;;;;;;;19.23;2.83;;;;;;;11.59;80.04;100947.50;4978681;28;20054;-96
2021/03/28 05:23:43;;;;;;;19.00;3.10;;;;;;;11.65;79.73;100947.09;4977489;28;20030;-96
2021/03/28 05:26:42;;;;;;;23.50;3.05;;;;;;;11.07;82.34;100952.44;5012352;28;20064;-93
2021/03/28 05:29:45;;;;;;;20.10;2.70;;;;;;;11.27;82.06;100966.16;4995751;28;20027;-94
2021/03/28 05:32:48;;;;;;;10.52;1.92;;;;;;;11.64;79.33;100966.47;4995526;28;20030;-94
2021/03/28 05:35:25;;;;;;;18.17;3.13;;;;;;;11.16;81.15;100972.06;4994532;28;20030;-94
2021/03/28 05:38:10;;;;;;;23.00;2.90;;;;;;;11.60;79.62;100965.00;4994477;28;20026;-94
2021/03/28 05:41:09;;;;;;;16.73;2.72;;;;;;;11.39;79.93;100967.16;4994451;28;20030;-94
2021/03/28 05:44:10;;;;;;;16.00;2.45;;;;;;;11.49;79.81;100953.38;5020342;28;20094;-93
2021/03/28 05:47:01;;;;;;;18.65;2.90;;;;;;;11.54;79.59;100954.84;5017078;28;20041;-95
2021/03/28 05:49:52;;;;;;;15.85;2.65;;;;;;;11.89;77.99;100964.00;5018876;28;20046;-94
2021/03/28 05:52:42;;;;;;;20.50;2.42;;;;;;;11.61;78.84;100956.13;5017538;28;20033;-95
2021/03/28 05:55:25;;;;;;;20.83;3.13;;;;;;;11.83;78.31;100956.47;5001567;28;20418;-95
2021/03/28 05:58:23;;;;;;;16.00;3.17;;;;;;;11.71;78.48;100944.13;5000420;28;20060;-94
2021/03/28 06:01:29;;;;;;;19.75;3.28;;;;;;;11.46;79.27;100963.22;4995380;28;20035;-93
2021/03/28 06:04:16;;;;;;;16.52;2.63;;;;;;;11.38;80.29;100958.44;4977400;28;20035;-94
2021/03/28 06:07:00;;;;;;;15.57;2.08;;;;;;;11.54;79.32;100960.94;4975471;28;20059;-94
2021/03/28 06:10:16;;;;;;;16.58;3.45;;;;;;;11.51;79.54;100967.25;4974674;28;20209;-94
2021/03/28 06:13:06;;;;;;;22.38;3.00;;;;;;;11.76;79.02;100970.13;4982224;28;20039;-93
2021/03/28 06:15:44;;;;;;;10.93;2.47;;;;;;;11.61;79.72;100993.81;4994556;28;20043;-94
2021/03/28 06:18:56;;;;;;;15.45;2.30;;;;;;;11.87;78.83;100994.78;4990794;28;20038;-94
2021/03/28 06:21:40;;;;;;;;;;;;;;;12.03;78.24;100980.69;4974823;28;20057;-94
2021/03/28 06:24:40;;;;;;;24.70;2.70;;;;;;;11.83;78.79;100987.22;4974735;28;19921;-95
2021/03/28 06:27:08;;;;;;;14.40;2.28;;;;;;;11.47;80.23;100989.44;4975132;28;20031;-94
2021/03/28 06:30:11;;;;;;;20.25;2.78;;;;;;;11.83;79.11;100985.41;4974571;28;20043;-94
2021/03/28 06:33:10;;;;;;;12.13;2.47;;;;;;;12.17;76.96;100985.88;4982377;28;20042;-95
2021/03/28 06:36:13;;;;;;;12.07;1.92;;;;;;;11.98;78.18;100985.41;4990557;28;20030;-94
2021/03/28 06:39:24;;;;;;;11.80;2.20;;;;;;;12.00;77.86;100999.31;4991001;28;20484;-93
2021/03/28 06:42:11;;;;;;;11.75;2.35;;;;;;;12.09;78.00;100993.44;4973907;28;20081;-94
2021/03/28 06:44:55;;;;;;;13.48;1.92;;;;;;;12.29;76.85;101006.16;4990428;28;20026;-94
2021/03/28 06:47:51;;;;;;;9.60;1.98;;;;;;;12.21;77.61;100997.91;4990404;28;20031;-95
2021/03/28 06:50:41;;;;;;;16.25;1.98;;;;;;;12.19;77.42;101002.44;4994842;28;20031;-94
2021/03/28 06:53:48;;;;;;;13.63;2.17;;;;;;;12.19;77.70;101004.22;4995656;28;20034;-93
2021/03/28 06:56:17;;;;;;;16.98;2.67;;;;;;;12.06;79.13;101017.31;4974768;28;20496;-93
2021/03/28 06:59:19;;;;;;;10.68;1.60;;;;;;;12.19;78.61;101015.59;4974442;28;20031;-94
2021/03/28 07:02:18;;;;;;;20.42;2.67;;;;;;;12.12;78.73;101018.72;4991378;28;20030;-94
2021/03/28 07:05:13;;;;;;;13.68;2.08;;;;;;;12.28;77.35;101007.09;4993014;28;20097;-94
2021/03/28 07:07:58;;;;;;;10.70;2.03;;;;;;;12.17;78.62;100999.06;4992121;28;20038;-90
2021/03/28 07:10:38;;;;;;;13.45;2.10;;;;;;;12.21;78.36;101008.44;4992447;28;20030;-87
2021/03/28 07:13:35;;;;;;;8.38;1.55;;;;;;;12.35;77.43;101004.06;4992273;28;20026;-87
2021/03/28 07:16:23;;;;;;;7.43;1.73;;;;;;;12.35;77.60;101001.44;4986591;28;20058;-87
2021/03/28 07:19:00;;;;;;;11.93;2.42;;;;;;;12.33;78.31;101016.50;4972814;28;20382;-87
2021/03/28 07:21:36;;;;;;;9.40;1.70;;;;;;;12.59;77.44;101014.75;4972752;28;20035;-87
2021/03/28 07:24:26;;;;;;;12.43;2.03;;;;;;;12.61;76.85;101016.34;4972818;28;20019;-87
2021/03/28 07:27:19;;;;;;;11.70;1.98;;;;;;;12.86;75.94;101017.34;4972919;28;20393;-87
2021/03/28 07:30:04;;;;;;;8.57;1.70;;;;;;;12.81;76.10;101022.06;4974408;28;20027;-87
2021/03/28 07:32:48;;;;;;;19.17;4.35;;;;;;;12.44;77.97;101025.38;4990825;28;20034;-87
2021/03/28 07:35:19;;;;;;;12.02;2.30;;;;;;;12.69;77.70;101035.09;4987627;28;20031;-87
2021/03/28 07:38:10;;;;;;;10.07;1.65;;;;;;;12.79;76.77;101026.59;4974513;28;20027;-86
2021/03/28 07:40:56;;;;;;;8.38;1.45;;;;;;;12.77;76.61;101042.50;4975343;28;20034;-86
2021/03/28 07:43:52;;;;;;;10.10;2.40;;;;;;;12.34;78.74;101044.50;4976381;28;20029;-87
2021/03/28 07:46:25;;;;;;;5.63;1.52;;;;;;;12.60;77.94;101038.38;4976701;28;20034;-86
2021/03/28 07:49:07;;;;;;;13.27;1.90;;;;;;;12.48;78.66;101041.81;4975292;28;20081;-88
2021/03/28 07:51:50;;;;;;;;;;;;;;;13.05;76.35;101051.19;4983276;28;20022;-89
2021/03/28 07:54:50;;;;;;;18.70;2.20;;;;;;;12.56;78.53;101055.34;5010789;28;19925;-88
2021/03/28 07:57:23;;;;;;;18.38;2.70;;;;;;;12.42;78.94;101060.63;4985029;28;20078;-87
2021/03/28 08:00:26;;;;;;;19.98;2.92;;;;;;;13.02;77.10;101059.31;4990287;28;20509;-89
2021/03/28 08:03:23;;;;;;;8.63;1.83;;;;;;;12.68;78.35;101051.88;4983507;28;20041;-90
2021/03/28 08:06:20;;;;;;;10.30;2.00;;;;;;;12.70;78.76;101047.34;5009689;28;20080;-88
2021/03/28 08:09:26;;;;;;;12.30;2.05;;;;;;;12.96;77.16;101057.94;4977283;28;20027;-87
2021/03/28 08:11:54;;;;;;;8.55;2.10;;;;;;;13.47;75.99;101052.69;4989361;28;20477;-87
2021/03/28 08:14:57;;;;;;;14.15;2.30;;;;;;;13.47;75.08;101068.53;4995204;28;20030;-88
2021/03/28 08:18:14;;;;;;;11.13;1.70;;;;;;;13.47;76.34;101063.25;5010468;28;20061;-88
2021/03/28 08:20:55;;;;;;;10.95;2.88;;;;;;;13.48;75.87;101070.19;4989435;28;20030;-86
2021/03/28 08:23:49;;;;;;;11.65;2.30;;;;;;;13.29;76.34;101080.31;5008938;28;20030;-85
2021/03/28 08:26:52;;;;;;;15.52;1.75;;;;;;;13.37;76.39;101078.03;4994050;28;20030;-85
2021/03/28 08:29:26;;;;;;;13.20;1.83;;;;;;;13.45;75.64;101065.16;4990605;28;20492;-84
2021/03/28 08:32:15;;;;;;;17.88;2.05;;;;;;;13.71;74.38;101080.94;4995225;28;20022;-84
2021/03/28 08:35:02;;;;;;;12.35;2.75;;;;;;;13.54;75.16;101074.19;4990595;28;20030;-85
2021/03/28 08:37:52;;;;;;;15.85;2.38;;;;;;;13.43;76.33;101082.03;4992534;28;20035;-85
2021/03/28 08:40:35;;;;;;;11.65;2.03;;;;;;;13.50;76.10;101078.00;4979656;28;20030;-84
2021/03/28 08:43:16;;;;;;;12.50;2.72;;;;;;;13.59;75.19;101079.19;4991010;28;20551;-85
2021/03/28 08:45:51;;;;;;;23.98;2.92;;;;;;;13.24;77.06;101087.69;4983368;28;20037;-84
2021/03/28 08:48:47;;;;;;;18.60;2.83;;;;;;;13.63;76.01;101088.56;4991096;28;20034;-84
2021/03/28 08:51:40;;;;;;;15.05;2.47;;;;;;;13.55;75.42;101091.75;4993857;28;20080;-84
2021/03/28 08:54:15;;;;;;;16.15;2.42;;;;;;;13.53;76.68;101098.91;4994488;28;20030;-84
2021/03/28 08:56:55;;;;;;;19.55;3.05;;;;;;;13.70;75.13;101100.38;4992141;28;20548;-84
2021/03/28 08:59:47;;;;;;;11.80;2.47;;;;;;;13.78;74.75;101103.31;5002618;28;20026;-84
2021/03/28 09:02:30;;;;;;;;;;;;;;;13.92;73.98;101096.22;4976445;28;20054;-85
2021/03/28 09:05:14;;;;;;;18.20;2.85;;;;;;;13.95;73.96;101103.94;4975859;28;20013;-85
2021/03/28 09:07:42;;;;;;;7.88;1.88;;;;;;;14.12;73.12;101100.06;4977204;28;20229;-85
2021/03/28 09:10:32;;;;;;;11.57;2.03;;;;;;;13.96;73.49;101106.47;4988887;28;20037;-85
2021/03/28 09:13:29;;;;;;;13.05;2.38;;;;;;;13.67;74.70;101101.44;4997637;28;20121;-84
2021/03/28 09:16:02;;;;;;;15.30;2.58;;;;;;;13.89;74.25;101113.13;4988339;28;20124;-85
2021/03/28 09:18:56;;;;;;;12.13;2.28;;;;;;;14.40;73.73;101122.72;4991599;28;20034;-85
2021/03/28 09:21:31;;;;;;;13.45;2.50;;;;;;;14.71;71.26;101120.47;5001838;28;20014;-85
2021/03/28 09:23:59;;;;;;;19.60;3.75;;;;;;;14.39;72.29;101118.38;5014238;28;20007;-85
2021/03/28 09:27:09;;;;;;;12.00;2.70;;;;;;;14.43;71.89;101131.22;5005687;28;20026;-85
2021/03/28 09:29:55;;;;;;;16.48;2.13;;;;;;;13.91;73.50;101113.03;5005265;28;20062;-90
2021/03/28 09:32:39;;;;;;;14.10;2.15;;;;;;;14.39;72.03;101115.72;5001943;28;20014;-92
2021/03/28 09:35:32;;;;;;;18.88;2.45;;;;;;;14.57;70.84;101109.13;5018702;28;20073;-92
2021/03/28 09:38:23;;;;;;;11.65;2.30;;;;;;;14.74;70.65;101129.03;5017342;28;20090;-91
2021/03/28 09:40:58;;;;;;;10.65;1.90;;;;;;;15.12;69.30;101116.53;5018431;28;20030;-92
2021/03/28 09:43:34;;;;;;;11.10;1.92;;;;;;;15.34;67.57;101127.16;5018876;28;20011;-92
2021/03/28 09:46:19;;;;;;;13.85;2.65;;;;;;;15.11;69.19;101133.38;5034670;28;20025;-92
2021/03/28 09:48:59;;;;;;;10.55;2.17;;;;;;;15.18;68.75;101139.88;5034713;28;20034;-92
2021/03/28 09:51:41;;;;;;;12.82;1.92;;;;;;;14.81;69.61;101143.50;5034613;28;20014;-92
2021/03/28 09:54:17;;;;;;;10.90;2.20;;;;;;;14.22;71.75;101156.59;5017935;28;20022;-92
2021/03/28 09:56:49;;;;;;;11.00;1.80;;;;;;;14.92;68.66;101153.25;5002676;28;20058;-92
2021/03/28 09:59:36;;;;;;;11.98;2.30;;;;;;;14.71;70.46;101157.47;5017171;28;20030;-90
2021/03/28 10:02:07;;;;;;;16.02;2.10;;;;;;;15.29;67.98;101150.50;5024711;28;20031;-91
2021/03/28 10:04:55;;;;;;;17.15;3.40;;;;;;;15.24;67.48;101152.63;5030439;28;20018;-92
2021/03/28 10:07:27;;;;;;;18.17;2.83;;;;;;;14.60;70.37;101147.72;4988484;28;20034;-92
2021/03/28 10:10:01;;;;;;;17.63;1.98;;;;;;;14.98;68.79;101158.09;4992244;28;20027;-91
2021/03/28 10:12:52;;;;;;;16.33;2.67;;;;;;;15.21;68.56;101172.25;4990047;28;20038;-93
2021/03/28 10:15:22;;;;;;;10.30;2.30;;;;;;;15.08;68.68;101169.66;4991147;28;20080;-92
2021/03/28 10:18:12;;;;;;;12.23;4.28;;;;;;;15.37;67.99;101176.38;4980520;28;20069;-91
2021/03/28 10:21:18;;;;;;;10.68;2.08;;;;;;;15.08;69.00;101168.81;4973363;28;20374;-91
2021/03/28 10:24:10;;;;;;;14.32;2.42;;;;;;;14.98;68.87;101171.31;4992700;28;20043;-91
2021/03/28 10:26:50;;;;;;;9.48;1.85;;;;;;;14.92;68.57;101169.13;4988888;28;20022;-90
2021/03/28 10:29:49;;;;;;;16.45;2.45;;;;;;;14.85;69.24;101179.31;4999121;28;20432;-84
2021/03/28 10:32:20;;;;;;;17.25;2.13;;;;;;;14.72;70.84;101175.03;4989089;28;20093;-86
2021/03/28 10:35:07;;;;;;;11.60;2.20;;;;;;;15.13;68.80;101168.50;4982586;28;20022;-85
2021/03/28 10:37:32;;;;;;;13.52;2.20;;;;;;;14.72;70.07;101177.69;4982627;28;20022;-85
2021/03/28 10:40:33;;;;;;;12.77;2.15;;;;;;;15.50;67.74;101169.19;4973125;28;20490;-85
2021/03/28 10:43:20;;;;;;;12.05;2.50;;;;;;;15.59;66.55;101168.47;4983398;28;20090;-85
2021/03/28 10:46:19;;;;;;;12.25;2.60;;;;;;;15.68;66.26;101177.53;4992530;28;20432;-85
2021/03/28 10:49:17;;;;;;;14.75;2.17;;;;;;;15.79;65.75;101179.34;4981582;28;20389;-85
2021/03/28 10:52:28;;;;;;;16.17;2.28;;;;;;;15.77;65.46;101178.63;4988654;28;20022;-85
2021/03/28 10:55:26;;;;;;;12.50;2.30;;;;;;;15.71;65.60;101177.28;4986488;28;20101;-85
2021/03/28 10:57:54;;;;;;;11.95;1.92;;;;;;;15.43;66.64;101174.09;4973679;28;20039;-85
2021/03/28 11:00:46;;;;;;;11.43;2.25;;;;;;;15.51;67.36;101175.31;4972769;28;20070;-85
2021/03/28 11:03:41;;;;;;;10.93;2.05;;;;;;;15.60;65.88;101164.88;4986758;28;20014;-85
2021/03/28 11:06:24;;;;;;;12.75;2.17;;;;;;;15.73;64.86;101179.84;4974179;28;20436;-85
2021/03/28 11:09:28;;;;;;;10.43;1.92;;;;;;;15.75;64.80;101176.09;4976154;28;20051;-84
2021/03/28 11:12:18;;;;;;;8.43;2.58;;;;;;;15.57;66.45;101186.28;4988247;28;20054;-85
2021/03/28 11:15:04;;;;;;;8.65;2.10;;;;;;;15.65;66.24;101173.28;4992605;28;20133;-85
2021/03/28 11:17:40;;;;;;;19.13;2.47;;;;;;;15.51;66.36;101180.63;5009890;28;20616;-84
2021/03/28 11:20:43;;;;;;;9.07;2.28;;;;;;;15.34;67.42;101185.38;4994806;28;20042;-85
2021/03/28 11:23:29;;;;;;;8.73;1.52;;;;;;;15.48;67.05;101186.97;5006186;28;20026;-85
2021/03/28 11:26:32;;;;;;;7.50;2.00;;;;;;;15.42;67.06;101188.31;4983434;28;20117;-84
2021/03/28 11:29:24;;;;;;;11.00;2.03;;;;;;;15.56;66.45;101174.03;4987440;28;20134;-85
2021/03/28 11:32:22;;;;;;;8.93;1.73;;;;;;;15.71;67.08;101193.16;4995867;28;20481;-85
2021/03/28 11:35:34;;;;;;;8.27;1.40;;;;;;;15.52;66.31;101184.94;4990680;28;20023;-86
2021/03/28 11:38:17;;;;;;;10.18;2.58;;;;;;;15.44;67.49;101190.81;4990080;28;20023;-85
2021/03/28 11:41:06;;;;;;;7.07;1.42;;;;;;;15.87;66.47;101190.19;4995447;28;20042;-85
2021/03/28 11:43:34;;;;;;;16.83;2.60;;;;;;;15.56;66.82;101181.97;4998050;28;20034;-85
2021/03/28 11:46:05;;;;;;;12.80;1.60;;;;;;;15.83;65.34;101192.22;4995758;28;20384;-85
2021/03/28 11:48:38;;;;;;;8.50;1.60;;;;;;;15.84;65.56;101193.94;4989281;28;20033;-85
2021/03/28 11:51:16;;;;;;;5.13;1.80;;;;;;;16.26;64.01;101188.88;4987394;28;20019;-85
2021/03/28 11:53:42;;;;;;;9.07;1.60;;;;;;;16.18;64.35;101196.59;4995572;28;20519;-85
2021/03/28 11:56:35;;;;;;;12.48;2.40;;;;;;;16.28;64.65;101190.56;4991029;28;20038;-85
2021/03/28 11:59:04;;;;;;;8.82;1.70;;;;;;;16.24;64.23;101200.56;4995429;28;20038;-83
2021/03/28 12:01:55;;;;;;;16.33;2.35;;;;;;;15.92;64.90;101205.75;4992625;28;20121;-85
2021/03/28 12:04:23;;;;;;;12.80;2.30;;;;;;;15.88;65.42;101193.69;4992400;28;20038;-86
2021/03/28 12:06:56;;;;;;;10.52;2.30;;;;;;;15.94;64.79;101187.94;4995860;28;20504;-85
2021/03/28 12:09:31;;;;;;;12.95;2.72;;;;;;;15.84;64.52;101193.94;4994599;28;20026;-84
2021/03/28 12:12:12;;;;;;;16.70;2.35;;;;;;;15.69;65.18;101192.44;4988236;28;20125;-86
2021/03/28 12:14:38;;;;;;;11.10;1.88;;;;;;;15.64;65.60;101205.19;4995387;28;20072;-90
2021/03/28 12:17:10;;;;;;;11.32;2.75;;;;;;;15.82;65.07;101201.16;5006322;28;20112;-86
2021/03/28 12:19:53;;;;;;;14.07;2.55;;;;;;;15.58;66.00;101205.63;4982509;28;20449;-86
2021/03/28 12:22:26;;;;;;;11.27;1.90;;;;;;;15.56;66.39;101204.91;4989446;28;20031;-86
2021/03/28 12:25:03;;;;;;;17.33;2.30;;;;;;;16.11;63.75;101200.66;4993886;28;20062;-85
2021/03/28 12:28:02;;;;;;;15.98;2.58;;;;;;;15.98;63.88;101200.81;4988878;28;20374;-84
2021/03/28 12:30:28;;;;;;;18.95;3.13;;;;;;;15.28;66.75;101199.06;4993161;28;20109;-85
2021/03/28 12:33:17;;;;;;;11.88;2.67;;;;;;;15.70;65.62;101194.13;4993897;28;20105;-83
2021/03/28 12:36:06;;;;;;;15.55;3.20;;;;;;;15.69;65.69;101195.06;4994860;28;20030;-84
2021/03/28 12:38:43;;;;;;;13.02;2.53;;;;;;;15.56;65.61;101183.75;4983129;28;20486;-89
2021/03/28 12:41:31;;;;;;;15.70;3.05;;;;;;;15.68;65.70;101193.41;4990797;28;20034;-85
2021/03/28 12:44:19;;;;;;;13.93;2.95;;;;;;;15.68;65.69;101198.69;4993252;28;20477;-84
2021/03/28 12:46:51;;;;;;;13.88;2.50;;;;;;;15.84;64.88;101199.22;4994116;28;20455;-84